sensor_id;sensor_type;location;lat;lon;timestamp;temperature;humidity
20284;DHT22;10301;50.832;4.080;2023-03-25T00:00:57;9.50;96.40
20284;DHT22;10301;50.832;4.080;2023-03-25T00:03:25;9.50;96.30
20284;DHT22;10301;50.832;4.080;2023-03-25T00:05:52;9.60;95.20
20284;DHT22;10301;50.832;4.080;2023-03-25T00:08:17;9.40;95.90
20284;DHT22;10301;50.832;4.080;2023-03-25T00:10:43;9.40;95.20
20284;DHT22;10301;50.832;4.080;2023-03-25T00:13:09;9.50;93.90
20284;DHT22;10301;50.832;4.080;2023-03-25T00:15:41;9.50;92.80
20284;DHT22;10301;50.832;4.080;2023-03-25T00:18:07;9.50;92.30
20284;DHT22;10301;50.832;4.080;2023-03-25T00:20:33;9.40;92.80
20284;DHT22;10301;50.832;4.080;2023-03-25T00:22:58;9.30;93.60
20284;DHT22;10301;50.832;4.080;2023-03-25T00:25:24;9.40;93.40
20284;DHT22;10301;50.832;4.080;2023-03-25T00:27:49;9.40;93.70
20284;DHT22;10301;50.832;4.080;2023-03-25T00:30:17;9.40;92.90
20284;DHT22;10301;50.832;4.080;2023-03-25T00:32:43;9.40;93.90
20284;DHT22;10301;50.832;4.080;2023-03-25T00:35:18;9.50;91.20
20284;DHT22;10301;50.832;4.080;2023-03-25T00:37:45;9.60;90.50
20284;DHT22;10301;50.832;4.080;2023-03-25T00:40:12;9.40;92.20
20284;DHT22;10301;50.832;4.080;2023-03-25T00:42:39;9.40;91.60
20284;DHT22;10301;50.832;4.080;2023-03-25T00:45:10;9.50;91.70
20284;DHT22;10301;50.832;4.080;2023-03-25T00:47:36;9.50;92.10
20284;DHT22;10301;50.832;4.080;2023-03-25T00:50:03;9.50;91.80
20284;DHT22;10301;50.832;4.080;2023-03-25T00:52:30;9.50;91.10
20284;DHT22;10301;50.832;4.080;2023-03-25T00:54:56;9.50;91.60
20284;DHT22;10301;50.832;4.080;2023-03-25T00:57:21;9.60;90.70
20284;DHT22;10301;50.832;4.080;2023-03-25T00:59:47;9.50;93.10
20284;DHT22;10301;50.832;4.080;2023-03-25T01:02:13;9.40;94.90
20284;DHT22;10301;50.832;4.080;2023-03-25T01:04:41;9.40;95.30
20284;DHT22;10301;50.832;4.080;2023-03-25T01:07:10;9.40;95.20
20284;DHT22;10301;50.832;4.080;2023-03-25T01:09:36;9.40;94.50
20284;DHT22;10301;50.832;4.080;2023-03-25T01:12:03;9.40;94.50
20284;DHT22;10301;50.832;4.080;2023-03-25T01:14:29;9.30;95.60
20284;DHT22;10301;50.832;4.080;2023-03-25T01:16:54;9.20;97.00
20284;DHT22;10301;50.832;4.080;2023-03-25T01:19:21;9.10;97.70
20284;DHT22;10301;50.832;4.080;2023-03-25T01:21:47;9.10;98.30
20284;DHT22;10301;50.832;4.080;2023-03-25T01:24:14;9.20;96.90
20284;DHT22;10301;50.832;4.080;2023-03-25T01:26:40;9.20;96.30
20284;DHT22;10301;50.832;4.080;2023-03-25T01:29:15;9.20;97.80
20284;DHT22;10301;50.832;4.080;2023-03-25T01:31:41;9.20;99.10
20284;DHT22;10301;50.832;4.080;2023-03-25T01:34:07;9.10;98.90
20284;DHT22;10301;50.832;4.080;2023-03-25T01:36:33;9.10;98.90
20284;DHT22;10301;50.832;4.080;2023-03-25T01:39:00;9.20;99.60
20284;DHT22;10301;50.832;4.080;2023-03-25T01:41:28;9.30;98.90
20284;DHT22;10301;50.832;4.080;2023-03-25T01:46:50;9.30;97.60
20284;DHT22;10301;50.832;4.080;2023-03-25T01:51:59;9.10;98.70
20284;DHT22;10301;50.832;4.080;2023-03-25T01:54:27;9.20;98.70
20284;DHT22;10301;50.832;4.080;2023-03-25T01:56:53;9.20;97.80
20284;DHT22;10301;50.832;4.080;2023-03-25T01:59:22;9.10;97.80
20284;DHT22;10301;50.832;4.080;2023-03-25T02:01:49;9.10;98.30
20284;DHT22;10301;50.832;4.080;2023-03-25T02:04:21;9.20;97.20
20284;DHT22;10301;50.832;4.080;2023-03-25T02:06:52;9.20;96.70
20284;DHT22;10301;50.832;4.080;2023-03-25T02:09:21;9.20;96.10
20284;DHT22;10301;50.832;4.080;2023-03-25T02:11:48;9.20;94.80
20284;DHT22;10301;50.832;4.080;2023-03-25T02:14:19;9.20;95.50
20284;DHT22;10301;50.832;4.080;2023-03-25T02:22:25;9.10;95.50
20284;DHT22;10301;50.832;4.080;2023-03-25T02:33:40;9.20;94.80
20284;DHT22;10301;50.832;4.080;2023-03-25T02:38:52;9.10;96.30
20284;DHT22;10301;50.832;4.080;2023-03-25T02:41:25;9.20;96.10
20284;DHT22;10301;50.832;4.080;2023-03-25T02:44:02;9.00;98.60
20284;DHT22;10301;50.832;4.080;2023-03-25T02:46:29;8.80;99.90
20284;DHT22;10301;50.832;4.080;2023-03-25T02:49:08;8.80;99.90
20284;DHT22;10301;50.832;4.080;2023-03-25T02:51:45;8.80;99.90
20284;DHT22;10301;50.832;4.080;2023-03-25T02:54:15;8.90;99.90
20284;DHT22;10301;50.832;4.080;2023-03-25T02:56:42;8.70;99.90
20284;DHT22;10301;50.832;4.080;2023-03-25T02:59:12;8.70;99.90
20284;DHT22;10301;50.832;4.080;2023-03-25T03:01:40;8.80;99.90
20284;DHT22;10301;50.832;4.080;2023-03-25T03:04:06;8.80;99.90
20284;DHT22;10301;50.832;4.080;2023-03-25T03:06:37;8.80;99.90
20284;DHT22;10301;50.832;4.080;2023-03-25T03:23:27;8.80;99.90
20284;DHT22;10301;50.832;4.080;2023-03-25T03:29:09;8.80;99.90
20284;DHT22;10301;50.832;4.080;2023-03-25T03:31:50;8.80;99.90
20284;DHT22;10301;50.832;4.080;2023-03-25T03:34:22;8.70;99.90
20284;DHT22;10301;50.832;4.080;2023-03-25T03:36:52;8.50;99.90
20284;DHT22;10301;50.832;4.080;2023-03-25T03:39:24;8.60;99.90
20284;DHT22;10301;50.832;4.080;2023-03-25T03:42:02;8.60;99.90
20284;DHT22;10301;50.832;4.080;2023-03-25T03:44:32;8.70;99.90
20284;DHT22;10301;50.832;4.080;2023-03-25T03:47:03;8.80;99.90
20284;DHT22;10301;50.832;4.080;2023-03-25T03:50:00;8.80;99.90
20284;DHT22;10301;50.832;4.080;2023-03-25T03:52:29;8.80;99.90
20284;DHT22;10301;50.832;4.080;2023-03-25T03:55:01;8.80;99.90
20284;DHT22;10301;50.832;4.080;2023-03-25T03:57:48;8.60;99.90
20284;DHT22;10301;50.832;4.080;2023-03-25T04:00:17;8.60;99.90
20284;DHT22;10301;50.832;4.080;2023-03-25T04:05:56;8.60;99.90
20284;DHT22;10301;50.832;4.080;2023-03-25T04:08:33;8.60;99.90
20284;DHT22;10301;50.832;4.080;2023-03-25T04:11:04;8.50;99.90
20284;DHT22;10301;50.832;4.080;2023-03-25T04:13:36;8.60;99.90
20284;DHT22;10301;50.832;4.080;2023-03-25T04:16:05;8.60;99.90
20284;DHT22;10301;50.832;4.080;2023-03-25T04:18:31;8.60;99.90
20284;DHT22;10301;50.832;4.080;2023-03-25T04:20:58;8.70;99.90
20284;DHT22;10301;50.832;4.080;2023-03-25T04:23:28;8.70;99.90
20284;DHT22;10301;50.832;4.080;2023-03-25T04:25:59;8.60;99.90
20284;DHT22;10301;50.832;4.080;2023-03-25T04:28:27;8.60;99.90
20284;DHT22;10301;50.832;4.080;2023-03-25T04:30:52;8.60;99.90
20284;DHT22;10301;50.832;4.080;2023-03-25T04:33:23;8.60;99.90
20284;DHT22;10301;50.832;4.080;2023-03-25T04:35:50;8.70;99.90
20284;DHT22;10301;50.832;4.080;2023-03-25T04:38:19;8.70;99.90
20284;DHT22;10301;50.832;4.080;2023-03-25T04:40:45;8.60;99.90
20284;DHT22;10301;50.832;4.080;2023-03-25T04:43:16;8.70;99.90
20284;DHT22;10301;50.832;4.080;2023-03-25T04:45:45;8.80;99.90
20284;DHT22;10301;50.832;4.080;2023-03-25T04:48:26;8.70;99.90
20284;DHT22;10301;50.832;4.080;2023-03-25T04:50:54;8.80;99.90
20284;DHT22;10301;50.832;4.080;2023-03-25T04:53:22;8.80;99.90
20284;DHT22;10301;50.832;4.080;2023-03-25T04:55:48;8.80;99.90
20284;DHT22;10301;50.832;4.080;2023-03-25T04:58:14;8.70;99.90
20284;DHT22;10301;50.832;4.080;2023-03-25T05:00:42;8.70;99.90
20284;DHT22;10301;50.832;4.080;2023-03-25T05:03:09;8.60;99.90
20284;DHT22;10301;50.832;4.080;2023-03-25T05:05:36;8.60;99.90
20284;DHT22;10301;50.832;4.080;2023-03-25T05:08:02;8.60;99.90
20284;DHT22;10301;50.832;4.080;2023-03-25T05:10:28;8.50;99.90
20284;DHT22;10301;50.832;4.080;2023-03-25T05:13:03;8.70;99.90
20284;DHT22;10301;50.832;4.080;2023-03-25T05:15:29;8.70;99.90
20284;DHT22;10301;50.832;4.080;2023-03-25T05:17:57;8.80;99.20
20284;DHT22;10301;50.832;4.080;2023-03-25T05:20:23;8.90;98.20
20284;DHT22;10301;50.832;4.080;2023-03-25T05:22:49;8.90;98.30
20284;DHT22;10301;50.832;4.080;2023-03-25T05:25:18;8.70;99.90
20284;DHT22;10301;50.832;4.080;2023-03-25T05:27:47;8.70;99.90
20284;DHT22;10301;50.832;4.080;2023-03-25T05:30:13;8.90;98.80
20284;DHT22;10301;50.832;4.080;2023-03-25T05:32:40;9.00;97.90
20284;DHT22;10301;50.832;4.080;2023-03-25T05:35:06;9.10;96.40
20284;DHT22;10301;50.832;4.080;2023-03-25T05:37:32;9.10;96.60
20284;DHT22;10301;50.832;4.080;2023-03-25T05:39:58;8.90;97.40
20284;DHT22;10301;50.832;4.080;2023-03-25T05:42:24;8.90;98.00
20284;DHT22;10301;50.832;4.080;2023-03-25T05:44:51;8.70;99.20
20284;DHT22;10301;50.832;4.080;2023-03-25T05:47:22;8.80;98.60
20284;DHT22;10301;50.832;4.080;2023-03-25T05:49:48;8.70;99.20
20284;DHT22;10301;50.832;4.080;2023-03-25T05:52:15;8.90;98.30
20284;DHT22;10301;50.832;4.080;2023-03-25T05:54:45;8.90;98.00
20284;DHT22;10301;50.832;4.080;2023-03-25T05:57:12;8.80;98.20
20284;DHT22;10301;50.832;4.080;2023-03-25T05:59:38;8.80;98.50
20284;DHT22;10301;50.832;4.080;2023-03-25T06:02:06;8.70;99.20
20284;DHT22;10301;50.832;4.080;2023-03-25T06:04:35;8.80;99.50
20284;DHT22;10301;50.832;4.080;2023-03-25T06:07:12;8.80;98.90
20284;DHT22;10301;50.832;4.080;2023-03-25T06:09:48;8.60;99.90
20284;DHT22;10301;50.832;4.080;2023-03-25T06:12:22;8.60;99.90
20284;DHT22;10301;50.832;4.080;2023-03-25T06:14:48;8.70;99.60
20284;DHT22;10301;50.832;4.080;2023-03-25T06:17:19;8.90;98.70
20284;DHT22;10301;50.832;4.080;2023-03-25T06:19:50;8.90;98.50
20284;DHT22;10301;50.832;4.080;2023-03-25T06:22:17;8.80;98.60
20284;DHT22;10301;50.832;4.080;2023-03-25T06:24:44;9.00;98.50
20284;DHT22;10301;50.832;4.080;2023-03-25T06:27:14;9.00;97.60
20284;DHT22;10301;50.832;4.080;2023-03-25T06:29:40;9.00;96.80
20284;DHT22;10301;50.832;4.080;2023-03-25T06:32:07;9.00;96.00
20284;DHT22;10301;50.832;4.080;2023-03-25T06:34:33;9.00;95.90
20284;DHT22;10301;50.832;4.080;2023-03-25T06:37:00;9.00;95.10
20284;DHT22;10301;50.832;4.080;2023-03-25T06:39:29;8.90;96.20
20284;DHT22;10301;50.832;4.080;2023-03-25T06:41:57;9.00;95.60
20284;DHT22;10301;50.832;4.080;2023-03-25T06:44:23;9.10;95.10
20284;DHT22;10301;50.832;4.080;2023-03-25T06:46:49;9.30;93.40
20284;DHT22;10301;50.832;4.080;2023-03-25T06:49:14;9.40;93.00
20284;DHT22;10301;50.832;4.080;2023-03-25T06:51:40;9.50;90.90
20284;DHT22;10301;50.832;4.080;2023-03-25T06:54:06;9.60;88.90
20284;DHT22;10301;50.832;4.080;2023-03-25T06:56:32;9.60;88.20
20284;DHT22;10301;50.832;4.080;2023-03-25T06:58:57;9.60;87.40
20284;DHT22;10301;50.832;4.080;2023-03-25T07:01:23;9.60;89.20
20284;DHT22;10301;50.832;4.080;2023-03-25T07:03:49;9.70;85.70
20284;DHT22;10301;50.832;4.080;2023-03-25T07:06:22;9.70;88.00
20284;DHT22;10301;50.832;4.080;2023-03-25T07:08:48;9.80;86.90
20284;DHT22;10301;50.832;4.080;2023-03-25T07:11:16;9.80;89.30
20284;DHT22;10301;50.832;4.080;2023-03-25T07:13:42;9.90;87.40
20284;DHT22;10301;50.832;4.080;2023-03-25T07:16:09;9.90;86.80
20284;DHT22;10301;50.832;4.080;2023-03-25T07:18:35;9.90;86.70
20284;DHT22;10301;50.832;4.080;2023-03-25T07:21:01;9.90;87.20
20284;DHT22;10301;50.832;4.080;2023-03-25T07:23:27;10.00;87.40
20284;DHT22;10301;50.832;4.080;2023-03-25T07:25:53;10.10;82.90
20284;DHT22;10301;50.832;4.080;2023-03-25T07:28:19;10.20;81.40
20284;DHT22;10301;50.832;4.080;2023-03-25T07:30:45;10.30;79.40
20284;DHT22;10301;50.832;4.080;2023-03-25T07:33:11;10.50;74.90
20284;DHT22;10301;50.832;4.080;2023-03-25T07:35:37;10.50;71.10
20284;DHT22;10301;50.832;4.080;2023-03-25T07:38:02;10.40;72.50
20284;DHT22;10301;50.832;4.080;2023-03-25T07:40:28;10.40;75.00
20284;DHT22;10301;50.832;4.080;2023-03-25T07:42:54;10.20;77.90
20284;DHT22;10301;50.832;4.080;2023-03-25T07:45:20;10.20;79.60
20284;DHT22;10301;50.832;4.080;2023-03-25T07:47:45;10.30;77.00
20284;DHT22;10301;50.832;4.080;2023-03-25T07:50:16;10.10;85.60
20284;DHT22;10301;50.832;4.080;2023-03-25T07:52:42;10.10;81.90
20284;DHT22;10301;50.832;4.080;2023-03-25T07:55:08;10.10;81.40
20284;DHT22;10301;50.832;4.080;2023-03-25T07:57:34;10.00;86.20
20284;DHT22;10301;50.832;4.080;2023-03-25T08:00:00;10.00;88.70
20284;DHT22;10301;50.832;4.080;2023-03-25T08:02:26;10.10;89.70
20284;DHT22;10301;50.832;4.080;2023-03-25T08:04:51;10.10;88.70
20284;DHT22;10301;50.832;4.080;2023-03-25T08:07:19;10.10;87.20
20284;DHT22;10301;50.832;4.080;2023-03-25T08:09:45;10.10;90.70
20284;DHT22;10301;50.832;4.080;2023-03-25T08:12:11;10.20;89.90
20284;DHT22;10301;50.832;4.080;2023-03-25T08:14:37;10.30;89.10
20284;DHT22;10301;50.832;4.080;2023-03-25T08:17:05;10.30;91.00
20284;DHT22;10301;50.832;4.080;2023-03-25T08:19:31;10.30;90.20
20284;DHT22;10301;50.832;4.080;2023-03-25T08:21:56;10.40;90.00
20284;DHT22;10301;50.832;4.080;2023-03-25T08:24:22;10.50;84.00
20284;DHT22;10301;50.832;4.080;2023-03-25T08:26:51;10.70;82.80
20284;DHT22;10301;50.832;4.080;2023-03-25T08:29:19;10.90;77.00
20284;DHT22;10301;50.832;4.080;2023-03-25T08:31:45;11.00;69.40
20284;DHT22;10301;50.832;4.080;2023-03-25T08:34:12;11.20;70.90
20284;DHT22;10301;50.832;4.080;2023-03-25T08:36:38;11.40;63.40
20284;DHT22;10301;50.832;4.080;2023-03-25T08:39:05;11.50;58.50
20284;DHT22;10301;50.832;4.080;2023-03-25T08:41:34;11.40;61.30
20284;DHT22;10301;50.832;4.080;2023-03-25T08:44:02;11.40;62.60
20284;DHT22;10301;50.832;4.080;2023-03-25T08:46:27;11.50;62.20
20284;DHT22;10301;50.832;4.080;2023-03-25T08:48:53;11.50;63.90
20284;DHT22;10301;50.832;4.080;2023-03-25T08:51:20;11.50;64.40
20284;DHT22;10301;50.832;4.080;2023-03-25T08:53:46;11.50;58.90
20284;DHT22;10301;50.832;4.080;2023-03-25T08:56:11;11.70;57.70
20284;DHT22;10301;50.832;4.080;2023-03-25T08:58:38;11.60;63.60
20284;DHT22;10301;50.832;4.080;2023-03-25T09:01:04;11.30;75.50
20284;DHT22;10301;50.832;4.080;2023-03-25T09:03:30;11.20;81.40
20284;DHT22;10301;50.832;4.080;2023-03-25T09:05:55;11.10;90.10
20284;DHT22;10301;50.832;4.080;2023-03-25T09:08:21;11.10;86.70
20284;DHT22;10301;50.832;4.080;2023-03-25T09:10:49;11.40;80.00
20284;DHT22;10301;50.832;4.080;2023-03-25T09:13:15;11.60;74.30
20284;DHT22;10301;50.832;4.080;2023-03-25T09:15:41;11.80;68.00
20284;DHT22;10301;50.832;4.080;2023-03-25T09:18:07;11.80;63.40
20284;DHT22;10301;50.832;4.080;2023-03-25T09:20:33;12.00;57.40
20284;DHT22;10301;50.832;4.080;2023-03-25T09:22:59;11.90;61.10
20284;DHT22;10301;50.832;4.080;2023-03-25T09:25:24;11.70;66.20
20284;DHT22;10301;50.832;4.080;2023-03-25T09:27:50;11.80;62.60
20284;DHT22;10301;50.832;4.080;2023-03-25T09:30:16;12.00;57.80
20284;DHT22;10301;50.832;4.080;2023-03-25T09:32:41;12.10;53.70
20284;DHT22;10301;50.832;4.080;2023-03-25T09:35:09;12.00;64.40
20284;DHT22;10301;50.832;4.080;2023-03-25T09:37:34;12.10;62.20
20284;DHT22;10301;50.832;4.080;2023-03-25T09:40:00;12.30;54.90
20284;DHT22;10301;50.832;4.080;2023-03-25T09:50:43;12.60;38.00
20284;DHT22;10301;50.832;4.080;2023-03-25T09:55:48;13.00;41.40
20284;DHT22;10301;50.832;4.080;2023-03-25T09:58:25;13.10;43.70
20284;DHT22;10301;50.832;4.080;2023-03-25T10:03:30;13.20;30.90
20284;DHT22;10301;50.832;4.080;2023-03-25T10:11:39;13.20;18.70
20284;DHT22;10301;50.832;4.080;2023-03-25T10:14:20;13.30;15.90
20284;DHT22;10301;50.832;4.080;2023-03-25T10:17:12;13.10;14.90
20284;DHT22;10301;50.832;4.080;2023-03-25T10:25:29;13.00;7.70
20284;DHT22;10301;50.832;4.080;2023-03-25T10:27:58;13.00;3.40
20284;DHT22;10301;50.832;4.080;2023-03-25T10:30:29;13.20;1.00
20284;DHT22;10301;50.832;4.080;2023-03-25T10:33:01;13.40;1.00
20284;DHT22;10301;50.832;4.080;2023-03-25T10:35:38;13.70;1.00
20284;DHT22;10301;50.832;4.080;2023-03-25T10:38:17;13.90;1.00
20284;DHT22;10301;50.832;4.080;2023-03-25T10:40:49;13.70;1.00
20284;DHT22;10301;50.832;4.080;2023-03-25T10:43:33;13.70;1.00
20284;DHT22;10301;50.832;4.080;2023-03-25T10:48:30;13.40;1.00
20284;DHT22;10301;50.832;4.080;2023-03-25T10:51:01;13.40;1.00
20284;DHT22;10301;50.832;4.080;2023-03-25T10:53:28;13.40;1.00
20284;DHT22;10301;50.832;4.080;2023-03-25T10:56:24;13.60;1.00
20284;DHT22;10301;50.832;4.080;2023-03-25T10:58:53;13.90;1.00
20284;DHT22;10301;50.832;4.080;2023-03-25T11:01:37;14.00;1.00
20284;DHT22;10301;50.832;4.080;2023-03-25T11:04:05;14.10;1.00
20284;DHT22;10301;50.832;4.080;2023-03-25T11:06:35;13.80;1.00
20284;DHT22;10301;50.832;4.080;2023-03-25T11:09:27;13.50;1.00
20284;DHT22;10301;50.832;4.080;2023-03-25T11:12:02;13.20;1.00
20284;DHT22;10301;50.832;4.080;2023-03-25T11:14:29;13.00;1.00
20284;DHT22;10301;50.832;4.080;2023-03-25T11:17:16;12.70;1.00
20284;DHT22;10301;50.832;4.080;2023-03-25T11:22:23;12.30;21.30
20284;DHT22;10301;50.832;4.080;2023-03-25T11:24:51;12.30;28.60
20284;DHT22;10301;50.832;4.080;2023-03-25T11:27:25;11.80;53.00
20284;DHT22;10301;50.832;4.080;2023-03-25T11:29:58;11.70;55.20
20284;DHT22;10301;50.832;4.080;2023-03-25T11:32:38;11.20;70.10
20284;DHT22;10301;50.832;4.080;2023-03-25T11:35:17;10.90;90.80
20284;DHT22;10301;50.832;4.080;2023-03-25T11:37:56;11.00;85.90
20284;DHT22;10301;50.832;4.080;2023-03-25T11:40:24;11.20;87.00
20284;DHT22;10301;50.832;4.080;2023-03-25T11:42:56;11.20;91.70
20284;DHT22;10301;50.832;4.080;2023-03-25T11:45:34;11.20;91.60
20284;DHT22;10301;50.832;4.080;2023-03-25T11:48:08;11.30;92.80
20284;DHT22;10301;50.832;4.080;2023-03-25T11:50:34;11.00;96.20
20284;DHT22;10301;50.832;4.080;2023-03-25T11:53:01;10.90;95.40
20284;DHT22;10301;50.832;4.080;2023-03-25T11:55:30;10.70;96.60
20284;DHT22;10301;50.832;4.080;2023-03-25T11:57:58;10.80;97.80
20284;DHT22;10301;50.832;4.080;2023-03-25T12:05:39;10.90;96.20
20284;DHT22;10301;50.832;4.080;2023-03-25T12:08:16;10.90;99.10
20284;DHT22;10301;50.832;4.080;2023-03-25T12:24:27;11.10;93.80
20284;DHT22;10301;50.832;4.080;2023-03-25T12:27:38;11.30;92.30
20284;DHT22;10301;50.832;4.080;2023-03-25T12:33:20;11.50;90.70
20284;DHT22;10301;50.832;4.080;2023-03-25T12:39:07;11.60;87.60
20284;DHT22;10301;50.832;4.080;2023-03-25T12:42:15;11.60;89.00
20284;DHT22;10301;50.832;4.080;2023-03-25T12:47:34;12.10;77.50
20284;DHT22;10301;50.832;4.080;2023-03-25T12:55:51;12.20;77.80
20284;DHT22;10301;50.832;4.080;2023-03-25T12:58:55;12.00;85.90
20284;DHT22;10301;50.832;4.080;2023-03-25T13:07:43;11.80;89.30
20284;DHT22;10301;50.832;4.080;2023-03-25T13:10:18;11.90;79.70
20284;DHT22;10301;50.832;4.080;2023-03-25T13:12:50;12.40;70.20
20284;DHT22;10301;50.832;4.080;2023-03-25T13:15:43;12.70;56.30
20284;DHT22;10301;50.832;4.080;2023-03-25T13:18:43;12.80;52.70
20284;DHT22;10301;50.832;4.080;2023-03-25T13:21:26;12.90;36.80
20284;DHT22;10301;50.832;4.080;2023-03-25T13:24:01;13.00;39.60
20284;DHT22;10301;50.832;4.080;2023-03-25T13:26:30;13.20;32.50
20284;DHT22;10301;50.832;4.080;2023-03-25T13:29:03;13.30;25.70
20284;DHT22;10301;50.832;4.080;2023-03-25T13:31:35;13.30;24.20
20284;DHT22;10301;50.832;4.080;2023-03-25T13:37:02;13.40;7.50
20284;DHT22;10301;50.832;4.080;2023-03-25T13:43:08;13.60;1.00
20284;DHT22;10301;50.832;4.080;2023-03-25T13:46:14;13.50;1.90
20284;DHT22;10301;50.832;4.080;2023-03-25T13:49:41;13.70;1.00
20284;DHT22;10301;50.832;4.080;2023-03-25T13:51:46;13.80;1.00
20284;DHT22;10301;50.832;4.080;2023-03-25T14:02:14;13.80;1.00
20284;DHT22;10301;50.832;4.080;2023-03-25T14:07:48;14.00;1.00
20284;DHT22;10301;50.832;4.080;2023-03-25T14:10:37;14.30;1.00
20284;DHT22;10301;50.832;4.080;2023-03-25T14:13:08;14.30;1.00
20284;DHT22;10301;50.832;4.080;2023-03-25T14:15:39;14.10;1.00
20284;DHT22;10301;50.832;4.080;2023-03-25T14:18:15;14.30;1.00
20284;DHT22;10301;50.832;4.080;2023-03-25T14:20:42;14.40;1.00
20284;DHT22;10301;50.832;4.080;2023-03-25T14:23:15;14.10;1.00
20284;DHT22;10301;50.832;4.080;2023-03-25T14:25:55;14.00;1.00
20284;DHT22;10301;50.832;4.080;2023-03-25T14:28:39;14.00;1.00
20284;DHT22;10301;50.832;4.080;2023-03-25T14:39:09;13.70;1.00
20284;DHT22;10301;50.832;4.080;2023-03-25T14:44:41;13.70;1.00
20284;DHT22;10301;50.832;4.080;2023-03-25T14:52:37;13.30;26.00
20284;DHT22;10301;50.832;4.080;2023-03-25T14:55:18;13.30;25.20
20284;DHT22;10301;50.832;4.080;2023-03-25T14:57:45;13.20;28.70
20284;DHT22;10301;50.832;4.080;2023-03-25T15:00:25;13.20;30.40
20284;DHT22;10301;50.832;4.080;2023-03-25T15:03:35;13.20;40.20
20284;DHT22;10301;50.832;4.080;2023-03-25T15:06:02;13.60;37.30
20284;DHT22;10301;50.832;4.080;2023-03-25T15:08:39;13.90;20.40
20284;DHT22;10301;50.832;4.080;2023-03-25T15:11:15;14.10;1.00
20284;DHT22;10301;50.832;4.080;2023-03-25T15:13:45;14.00;1.00
20284;DHT22;10301;50.832;4.080;2023-03-25T15:16:26;14.10;1.00
20284;DHT22;10301;50.832;4.080;2023-03-25T15:21:22;14.20;1.00
20284;DHT22;10301;50.832;4.080;2023-03-25T15:24:09;14.40;1.00
20284;DHT22;10301;50.832;4.080;2023-03-25T15:26:38;14.30;1.00
20284;DHT22;10301;50.832;4.080;2023-03-25T15:38:09;14.20;1.00
20284;DHT22;10301;50.832;4.080;2023-03-25T15:54:30;13.50;1.00
20284;DHT22;10301;50.832;4.080;2023-03-25T15:57:30;13.50;1.00
20284;DHT22;10301;50.832;4.080;2023-03-25T16:00:05;13.60;1.00
20284;DHT22;10301;50.832;4.080;2023-03-25T16:03:18;13.30;1.00
20284;DHT22;10301;50.832;4.080;2023-03-25T16:05:47;13.40;1.00
20284;DHT22;10301;50.832;4.080;2023-03-25T16:08:25;13.50;1.00
20284;DHT22;10301;50.832;4.080;2023-03-25T16:10:52;13.30;1.00
20284;DHT22;10301;50.832;4.080;2023-03-25T16:13:20;13.30;1.00
20284;DHT22;10301;50.832;4.080;2023-03-25T16:15:52;13.30;1.00
20284;DHT22;10301;50.832;4.080;2023-03-25T16:18:21;13.30;1.00
20284;DHT22;10301;50.832;4.080;2023-03-25T16:20:56;13.30;1.00
20284;DHT22;10301;50.832;4.080;2023-03-25T16:23:23;13.20;1.00
20284;DHT22;10301;50.832;4.080;2023-03-25T16:25:51;13.20;1.00
20284;DHT22;10301;50.832;4.080;2023-03-25T16:28:22;13.30;1.00
20284;DHT22;10301;50.832;4.080;2023-03-25T16:30:52;13.30;1.00
20284;DHT22;10301;50.832;4.080;2023-03-25T16:33:24;13.40;1.00
20284;DHT22;10301;50.832;4.080;2023-03-25T16:36:07;13.10;1.00
20284;DHT22;10301;50.832;4.080;2023-03-25T16:38:35;13.00;1.00
20284;DHT22;10301;50.832;4.080;2023-03-25T16:41:03;13.10;1.00
20284;DHT22;10301;50.832;4.080;2023-03-25T16:43:32;13.20;1.00
20284;DHT22;10301;50.832;4.080;2023-03-25T16:46:03;13.30;1.00
20284;DHT22;10301;50.832;4.080;2023-03-25T16:51:06;13.20;1.00
20284;DHT22;10301;50.832;4.080;2023-03-25T16:53:36;13.10;1.00
20284;DHT22;10301;50.832;4.080;2023-03-25T17:01:18;13.00;1.00
20284;DHT22;10301;50.832;4.080;2023-03-25T17:03:47;12.90;1.00
20284;DHT22;10301;50.832;4.080;2023-03-25T17:06:29;12.70;1.00
20284;DHT22;10301;50.832;4.080;2023-03-25T17:09:00;12.80;1.00
20284;DHT22;10301;50.832;4.080;2023-03-25T17:11:29;12.80;1.00
20284;DHT22;10301;50.832;4.080;2023-03-25T17:14:06;12.80;1.00
20284;DHT22;10301;50.832;4.080;2023-03-25T17:16:33;12.80;1.00
20284;DHT22;10301;50.832;4.080;2023-03-25T17:19:01;12.70;1.00
20284;DHT22;10301;50.832;4.080;2023-03-25T17:21:31;12.60;3.30
20284;DHT22;10301;50.832;4.080;2023-03-25T17:24:06;12.60;5.20
20284;DHT22;10301;50.832;4.080;2023-03-25T17:26:57;12.50;8.40
20284;DHT22;10301;50.832;4.080;2023-03-25T17:29:28;12.70;1.00
20284;DHT22;10301;50.832;4.080;2023-03-25T17:31:56;12.60;4.80
20284;DHT22;10301;50.832;4.080;2023-03-25T17:34:23;12.60;8.90
20284;DHT22;10301;50.832;4.080;2023-03-25T17:36:56;12.50;8.80
20284;DHT22;10301;50.832;4.080;2023-03-25T17:39:27;12.60;8.50
20284;DHT22;10301;50.832;4.080;2023-03-25T17:44:41;12.40;14.10
20284;DHT22;10301;50.832;4.080;2023-03-25T17:47:12;12.60;3.60
20284;DHT22;10301;50.832;4.080;2023-03-25T17:49:39;12.50;4.10
20284;DHT22;10301;50.832;4.080;2023-03-25T17:52:04;12.20;10.30
20284;DHT22;10301;50.832;4.080;2023-03-25T17:54:33;12.10;11.40
20284;DHT22;10301;50.832;4.080;2023-03-25T17:56:59;12.20;13.30
20284;DHT22;10301;50.832;4.080;2023-03-25T17:59:25;12.10;16.30
20284;DHT22;10301;50.832;4.080;2023-03-25T18:01:51;12.10;20.50
20284;DHT22;10301;50.832;4.080;2023-03-25T18:04:18;12.20;18.10
20284;DHT22;10301;50.832;4.080;2023-03-25T18:06:47;12.20;18.00
20284;DHT22;10301;50.832;4.080;2023-03-25T18:09:22;12.00;21.70
20284;DHT22;10301;50.832;4.080;2023-03-25T18:11:51;12.00;22.20
20284;DHT22;10301;50.832;4.080;2023-03-25T18:14:18;12.00;27.60
20284;DHT22;10301;50.832;4.080;2023-03-25T18:16:44;12.00;29.20
20284;DHT22;10301;50.832;4.080;2023-03-25T18:19:17;12.10;27.40
20284;DHT22;10301;50.832;4.080;2023-03-25T18:21:42;12.20;25.10
20284;DHT22;10301;50.832;4.080;2023-03-25T18:24:08;12.10;22.50
20284;DHT22;10301;50.832;4.080;2023-03-25T18:26:35;12.00;27.80
20284;DHT22;10301;50.832;4.080;2023-03-25T18:29:01;12.00;31.30
20284;DHT22;10301;50.832;4.080;2023-03-25T18:31:29;11.90;34.60
20284;DHT22;10301;50.832;4.080;2023-03-25T18:33:55;11.90;37.20
20284;DHT22;10301;50.832;4.080;2023-03-25T18:36:21;12.10;31.20
20284;DHT22;10301;50.832;4.080;2023-03-25T18:38:47;12.10;28.90
20284;DHT22;10301;50.832;4.080;2023-03-25T18:41:13;12.00;29.10
20284;DHT22;10301;50.832;4.080;2023-03-25T18:43:40;11.90;30.80
20284;DHT22;10301;50.832;4.080;2023-03-25T18:46:08;11.50;40.80
20284;DHT22;10301;50.832;4.080;2023-03-25T18:48:35;11.50;40.90
20284;DHT22;10301;50.832;4.080;2023-03-25T18:51:00;11.30;43.80
20284;DHT22;10301;50.832;4.080;2023-03-25T18:53:27;11.30;44.10
20284;DHT22;10301;50.832;4.080;2023-03-25T18:55:55;11.20;45.60
20284;DHT22;10301;50.832;4.080;2023-03-25T18:58:26;11.00;49.60
20284;DHT22;10301;50.832;4.080;2023-03-25T19:00:53;11.00;48.80
20284;DHT22;10301;50.832;4.080;2023-03-25T19:03:20;11.20;43.40